createdAt,value
2023-05-19T00:00:03.947Z,101304.47
2023-05-19T00:02:41.790Z,101301.97
2023-05-19T00:05:13.260Z,101304.72
2023-05-19T00:07:43.188Z,101306.56
2023-05-19T00:10:17.464Z,101304.00
2023-05-19T00:12:47.668Z,101299.69
2023-05-19T00:15:18.434Z,101299.78
2023-05-19T00:17:48.989Z,101296.31
2023-05-19T00:20:18.986Z,101300.78
2023-05-19T00:22:48.853Z,101300.00
2023-05-19T00:25:21.191Z,101304.53
2023-05-19T00:27:50.944Z,101297.59
2023-05-19T00:30:22.991Z,101302.09
2023-05-19T00:32:52.852Z,101304.78
2023-05-19T00:35:23.861Z,101302.25
2023-05-19T00:37:53.592Z,101307.59
2023-05-19T00:40:26.775Z,101307.72
2023-05-19T00:42:56.473Z,101309.59
2023-05-19T00:45:27.378Z,101317.59
2023-05-19T00:47:57.181Z,101303.59
2023-05-19T00:50:27.547Z,101313.34
2023-05-19T00:52:57.377Z,101304.63
2023-05-19T00:55:31.332Z,101299.47
2023-05-19T00:58:01.898Z,101307.41
2023-05-19T01:00:33.000Z,101301.38
2023-05-19T01:03:11.447Z,101305.84
2023-05-19T01:05:44.878Z,101311.19
2023-05-19T01:08:14.910Z,101309.47
2023-05-19T01:10:47.237Z,101305.13
2023-05-19T01:13:17.469Z,101300.78
2023-05-19T01:16:01.335Z,101301.72
2023-05-19T01:18:48.406Z,101302.66
2023-05-19T01:21:46.746Z,101299.25
2023-05-19T01:24:37.502Z,101297.53
2023-05-19T01:27:27.554Z,101296.75
2023-05-19T01:30:27.469Z,101294.19
2023-05-19T01:33:00.743Z,101289.88
2023-05-19T01:35:33.073Z,101283.81
2023-05-19T01:38:04.077Z,101289.16
2023-05-19T01:40:34.253Z,101287.47
2023-05-19T01:43:05.145Z,101287.53
2023-05-19T01:45:38.026Z,101286.72
2023-05-19T01:48:10.875Z,101293.75
2023-05-19T01:50:42.463Z,101285.03
2023-05-19T01:53:13.001Z,101295.59
2023-05-19T01:55:48.403Z,101285.97
2023-05-19T01:58:24.538Z,101294.75
2023-05-19T02:01:02.263Z,101298.31
2023-05-19T02:03:44.182Z,101300.06
2023-05-19T02:06:24.293Z,101294.84
2023-05-19T02:09:01.333Z,101304.47
2023-05-19T02:11:39.257Z,101301.88
2023-05-19T02:14:12.775Z,101300.16
2023-05-19T02:16:48.308Z,101303.69
2023-05-19T02:19:26.297Z,101303.72
2023-05-19T02:21:58.220Z,101306.44
2023-05-19T02:24:28.481Z,101307.34
2023-05-19T02:26:58.263Z,101303.88
2023-05-19T02:29:28.098Z,101305.66
2023-05-19T02:32:01.530Z,101295.19
2023-05-19T02:34:31.651Z,101296.06
2023-05-19T02:37:01.467Z,101297.84
2023-05-19T02:39:35.313Z,101292.59
2023-05-19T02:42:05.185Z,101296.13
2023-05-19T02:44:34.938Z,101295.25
2023-05-19T02:47:07.787Z,101290.03
2023-05-19T02:49:38.052Z,101287.44
2023-05-19T02:52:08.817Z,101282.19
2023-05-19T02:54:38.660Z,101282.19
2023-05-19T02:57:08.681Z,101274.34
2023-05-19T02:59:38.433Z,101276.13
2023-05-19T03:02:11.554Z,101270.84
2023-05-19T03:04:42.213Z,101271.78
2023-05-19T03:07:13.588Z,101266.53
2023-05-19T03:09:43.434Z,101270.03
2023-05-19T03:12:13.147Z,101262.19
2023-05-19T03:14:44.437Z,101266.59
2023-05-19T03:17:16.850Z,101266.59
2023-05-19T03:19:46.637Z,101277.03
2023-05-19T03:22:16.377Z,101276.09
2023-05-19T03:24:46.094Z,101278.59
2023-05-19T03:27:16.715Z,101281.06
2023-05-19T03:29:46.488Z,101279.09
2023-05-19T03:32:20.027Z,101278.97
2023-05-19T03:34:49.965Z,101278.75
2023-05-19T03:37:19.910Z,101285.59
2023-05-19T03:39:49.658Z,101279.28
2023-05-19T03:42:19.871Z,101269.53
2023-05-19T03:44:49.657Z,101275.53
2023-05-19T03:47:22.572Z,101282.41
2023-05-19T03:49:52.283Z,101269.94
2023-05-19T03:52:46.714Z,101269.75
2023-05-19T03:55:26.561Z,101273.16
2023-05-19T03:57:56.304Z,101269.53
2023-05-19T04:00:26.076Z,101268.53
2023-05-19T04:02:58.609Z,101267.44
2023-05-19T04:05:28.377Z,101266.38
2023-05-19T04:07:58.131Z,101256.53
2023-05-19T04:10:27.894Z,101260.69
2023-05-19T04:12:58.159Z,101263.16
2023-05-19T04:15:29.485Z,101260.25
2023-05-19T04:18:01.909Z,101263.53
2023-05-19T04:20:31.805Z,101263.34
2023-05-19T04:23:01.804Z,101270.22
2023-05-19T04:25:31.596Z,101260.44
2023-05-19T04:28:01.436Z,101261.19
2023-05-19T04:30:31.487Z,101255.81
2023-05-19T04:33:05.004Z,101260.97
2023-05-19T04:35:35.063Z,101259.13
2023-05-19T04:38:05.236Z,101257.22
2023-05-19T04:40:37.289Z,101262.41
2023-05-19T04:43:07.494Z,101258.72
2023-05-19T04:45:37.867Z,101263.03
2023-05-19T04:48:12.375Z,101262.88
2023-05-19T04:50:48.959Z,101263.59
2023-05-19T04:53:18.877Z,101264.28
2023-05-19T04:55:48.664Z,101269.38
2023-05-19T04:58:19.942Z,101262.16
2023-05-19T05:00:50.892Z,101268.97
2023-05-19T05:03:23.340Z,101274.06
2023-05-19T05:05:54.498Z,101267.69
2023-05-19T05:08:24.701Z,101265.72
2023-05-19T05:10:57.359Z,101255.81
2023-05-19T05:13:27.999Z,101262.66
2023-05-19T05:15:58.720Z,101265.97
2023-05-19T05:18:32.085Z,101260.44
2023-05-19T05:21:02.514Z,101267.31
2023-05-19T05:23:33.099Z,101270.59
2023-05-19T05:26:03.266Z,101265.16
2023-05-19T05:28:33.048Z,101270.22
2023-05-19T05:31:02.900Z,101266.47
2023-05-19T05:33:36.916Z,101267.16
2023-05-19T05:36:07.552Z,101277.44
2023-05-19T05:38:37.488Z,101281.56
2023-05-19T05:41:07.580Z,101271.47
2023-05-19T05:43:38.268Z,101268.41
2023-05-19T05:46:08.445Z,101261.78
2023-05-19T05:48:42.849Z,101257.91
2023-05-19T05:51:13.924Z,101262.75
2023-05-19T05:53:45.786Z,101256.06
2023-05-19T05:56:18.003Z,101256.50
2023-05-19T05:58:52.913Z,101254.22
2023-05-19T06:01:24.172Z,101256.31
2023-05-19T06:03:57.105Z,101258.91
2023-05-19T06:06:27.466Z,101255.34
2023-05-19T06:08:57.679Z,101256.22
2023-05-19T06:11:28.933Z,101249.81
2023-05-19T06:14:00.951Z,101247.09
2023-05-19T06:16:48.251Z,101242.91
2023-05-19T06:19:22.851Z,101233.38
2023-05-19T06:21:52.656Z,101233.63
2023-05-19T06:24:22.442Z,101233.03
2023-05-19T06:26:52.280Z,101229.28
2023-05-19T06:29:22.053Z,101230.09
2023-05-19T06:31:53.472Z,101230.56
2023-05-19T06:34:27.054Z,101228.22
2023-05-19T06:36:56.914Z,101214.78
2023-05-19T06:39:27.692Z,101229.53
2023-05-19T06:41:57.669Z,101238.91
2023-05-19T06:44:47.385Z,101237.75
2023-05-19T06:47:18.930Z,101237.25
2023-05-19T06:49:55.571Z,101238.06
2023-05-19T06:52:28.768Z,101232.47
2023-05-19T06:54:59.819Z,101226.59
2023-05-19T06:57:29.673Z,101233.06
2023-05-19T06:59:59.940Z,101236.25
2023-05-19T07:02:29.962Z,101237.25
2023-05-19T07:05:03.357Z,101235.56
2023-05-19T07:07:33.132Z,101240.53
2023-05-19T07:10:03.583Z,101230.97
2023-05-19T07:12:34.984Z,101234.09
2023-05-19T07:15:04.768Z,101234.41
2023-05-19T07:17:35.035Z,101228.84
2023-05-19T07:20:10.216Z,101233.97
2023-05-19T07:22:40.296Z,101231.88
2023-05-19T07:25:11.382Z,101225.59
2023-05-19T07:27:42.205Z,101234.47
2023-05-19T07:30:12.936Z,101230.84
2023-05-19T07:32:42.763Z,101232.97
2023-05-19T07:35:15.176Z,101229.78
2023-05-19T07:37:44.930Z,101219.28
2023-05-19T07:40:15.222Z,101228.25
2023-05-19T07:42:44.956Z,101229.47
2023-05-19T07:45:14.947Z,101222.81
2023-05-19T07:47:44.922Z,101221.16
2023-05-19T07:50:17.549Z,101212.94
2023-05-19T07:52:47.340Z,101212.72
2023-05-19T07:55:18.086Z,101211.50
2023-05-19T07:57:47.840Z,101211.38
2023-05-19T08:00:18.926Z,101215.69
2023-05-19T08:02:48.896Z,101208.00
2023-05-19T08:05:21.270Z,101202.94
2023-05-19T08:07:51.152Z,101203.25
2023-05-19T08:10:21.139Z,101195.28
2023-05-19T08:12:51.052Z,101197.47
2023-05-19T08:15:20.869Z,101197.09
2023-05-19T08:17:50.809Z,101200.03
2023-05-19T08:20:24.507Z,101196.66
2023-05-19T08:22:54.375Z,101203.47
2023-05-19T08:25:24.356Z,101196.69
2023-05-19T08:27:54.085Z,101191.31
2023-05-19T08:30:24.055Z,101190.50
2023-05-19T08:32:53.922Z,101176.03
2023-05-19T08:35:26.594Z,101184.38
2023-05-19T08:37:56.589Z,101175.66
2023-05-19T08:40:27.448Z,101175.66
2023-05-19T08:42:57.302Z,101177.03
2023-05-19T08:45:27.622Z,101165.72
2023-05-19T08:47:57.520Z,101166.94
2023-05-19T08:50:34.945Z,101175.28
2023-05-19T08:53:21.110Z,101163.63
2023-05-19T08:56:01.166Z,101168.66
2023-05-19T08:58:30.969Z,101162.03
2023-05-19T09:01:01.130Z,101171.56
2023-05-19T09:03:31.207Z,101159.25
2023-05-19T09:06:04.168Z,101159.56
2023-05-19T09:08:34.073Z,101157.69
2023-05-19T09:11:03.903Z,101146.09
2023-05-19T09:13:33.749Z,101153.00
2023-05-19T09:16:03.891Z,101149.66
2023-05-19T09:18:34.077Z,101147.91
2023-05-19T09:21:07.469Z,101149.53
2023-05-19T09:23:37.646Z,101153.66
2023-05-19T09:26:09.138Z,101153.88
2023-05-19T09:28:39.590Z,101151.19
2023-05-19T09:31:11.110Z,101137.72
2023-05-19T09:33:45.518Z,101131.38
2023-05-19T09:36:18.375Z,101131.84
2023-05-19T09:38:48.642Z,101138.50
2023-05-19T09:41:18.453Z,101131.00
2023-05-19T09:43:57.546Z,101130.63
2023-05-19T09:46:29.185Z,101120.75
2023-05-19T09:49:00.713Z,101123.47
2023-05-19T09:51:33.148Z,101113.56
2023-05-19T09:54:03.098Z,101118.59
2023-05-19T09:56:34.924Z,101108.00
2023-05-19T09:59:05.059Z,101113.56
2023-05-19T10:01:36.461Z,101112.47
2023-05-19T10:04:06.725Z,101120.91
2023-05-19T10:06:39.232Z,101114.25
2023-05-19T10:09:09.383Z,101121.25
2023-05-19T10:11:39.372Z,101116.34
2023-05-19T10:14:09.260Z,101115.88
2023-05-19T10:16:39.365Z,101101.00
2023-05-19T10:19:10.784Z,101122.75
2023-05-19T10:21:43.182Z,101115.59
2023-05-19T10:24:13.425Z,101118.94
2023-05-19T10:26:46.093Z,101111.84
2023-05-19T10:29:19.034Z,101123.03
2023-05-19T10:31:49.893Z,101110.31
2023-05-19T10:34:40.772Z,101107.88
2023-05-19T10:37:19.143Z,101103.84
2023-05-19T10:39:49.656Z,101100.59
2023-05-19T10:42:23.553Z,101099.06
2023-05-19T10:44:59.781Z,101106.72
2023-05-19T10:47:29.715Z,101094.47
2023-05-19T10:49:59.568Z,101100.41
2023-05-19T10:52:33.785Z,101108.69
2023-05-19T10:55:04.991Z,101104.63
2023-05-19T10:57:34.888Z,101101.41
2023-05-19T11:00:11.905Z,101110.44
2023-05-19T11:02:44.184Z,101103.34
2023-05-19T11:05:16.905Z,101098.31
2023-05-19T11:08:02.350Z,101093.75
2023-05-19T11:10:32.467Z,101090.53
2023-05-19T11:13:02.362Z,101091.19
2023-05-19T11:15:32.471Z,101096.38
2023-05-19T11:18:04.570Z,101088.09
2023-05-19T11:20:35.335Z,101093.25
2023-05-19T11:23:12.319Z,101081.97
2023-05-19T11:25:49.727Z,101080.78
2023-05-19T11:28:21.090Z,101086.69
2023-05-19T11:30:52.584Z,101084.38
2023-05-19T11:33:27.413Z,101085.91
2023-05-19T11:36:00.651Z,101078.19
2023-05-19T11:38:33.594Z,101077.75
2023-05-19T11:41:03.703Z,101087.03
2023-05-19T11:43:33.538Z,101077.78
2023-05-19T11:46:04.268Z,101082.59
2023-05-19T11:48:34.118Z,101077.97
2023-05-19T11:51:03.980Z,101082.72
2023-05-19T11:53:36.469Z,101081.84
2023-05-19T11:56:06.930Z,101074.88
2023-05-19T11:58:36.779Z,101071.53
2023-05-19T12:01:07.317Z,101060.16
2023-05-19T12:03:37.251Z,101059.72
2023-05-19T12:06:08.667Z,101050.03
2023-05-19T12:08:41.504Z,101049.91
2023-05-19T12:11:11.366Z,101049.97
2023-05-19T12:13:41.708Z,101048.06
2023-05-19T12:16:11.850Z,101045.56
2023-05-19T12:18:42.230Z,101051.63
2023-05-19T12:21:12.311Z,101043.38
2023-05-19T12:23:45.440Z,101039.41
2023-05-19T12:26:15.275Z,101042.66
2023-05-19T12:28:45.311Z,101052.19
2023-05-19T12:31:15.357Z,101038.25
2023-05-19T12:33:45.188Z,101037.16
2023-05-19T12:36:15.668Z,101024.28
2023-05-19T12:38:48.646Z,101021.91
2023-05-19T12:41:18.598Z,101019.75
2023-05-19T12:43:48.751Z,101017.16
2023-05-19T12:46:19.121Z,101022.66
2023-05-19T12:48:49.863Z,101036.00
2023-05-19T12:51:20.633Z,101018.50
2023-05-19T12:53:53.575Z,101018.50
2023-05-19T12:56:24.451Z,101021.03
2023-05-19T12:58:56.952Z,101007.84
2023-05-19T13:01:26.972Z,101018.16
2023-05-19T13:03:56.942Z,101016.03
2023-05-19T13:06:27.742Z,101022.69
2023-05-19T13:09:00.170Z,101017.19
2023-05-19T13:11:30.211Z,101027.28
2023-05-19T13:14:00.059Z,101027.72
2023-05-19T13:16:30.233Z,101013.41
2023-05-19T13:19:00.057Z,101016.22
2023-05-19T13:21:29.861Z,101015.03
2023-05-19T13:24:04.010Z,101013.84
2023-05-19T13:26:34.009Z,101013.84
2023-05-19T13:29:04.354Z,101003.84
2023-05-19T13:31:34.315Z,101009.84
2023-05-19T13:34:04.105Z,101014.75
2023-05-19T13:36:35.143Z,101000.78
2023-05-19T13:39:07.567Z,101002.44
2023-05-19T13:41:38.548Z,101001.06
2023-05-19T13:44:08.628Z,100996.56
2023-05-19T13:46:45.628Z,100989.78
2023-05-19T13:49:16.633Z,100999.25
2023-05-19T13:51:46.670Z,100991.44
2023-05-19T13:54:21.089Z,100989.69
2023-05-19T13:56:51.157Z,100991.50
2023-05-19T13:59:21.640Z,100981.75
2023-05-19T14:01:51.446Z,100982.50
2023-05-19T14:04:22.060Z,100988.41
2023-05-19T14:06:52.089Z,100978.50
2023-05-19T14:09:24.513Z,100980.13
2023-05-19T14:11:54.590Z,100973.56
2023-05-19T14:14:25.046Z,100983.13
2023-05-19T14:16:54.889Z,100981.94
2023-05-19T14:19:30.381Z,100977.56
2023-05-19T14:22:00.408Z,100977.75
2023-05-19T14:24:33.232Z,100984.13
2023-05-19T14:27:02.998Z,100986.69
2023-05-19T14:29:32.845Z,100980.44
2023-05-19T14:32:03.198Z,100973.56
2023-05-19T14:34:33.226Z,100981.84
2023-05-19T14:37:03.017Z,100983.03
2023-05-19T14:39:35.383Z,100971.53
2023-05-19T14:42:05.211Z,100967.47
2023-05-19T14:44:35.491Z,100964.31
2023-05-19T14:47:07.553Z,100966.59
2023-05-19T14:49:37.498Z,100968.41
2023-05-19T14:52:07.787Z,100969.91
2023-05-19T14:54:40.180Z,100987.34
2023-05-19T14:57:10.068Z,100967.16
2023-05-19T14:59:40.127Z,100968.09
2023-05-19T15:02:11.757Z,100962.84
2023-05-19T15:04:41.491Z,100962.19
2023-05-19T15:07:11.756Z,100974.78
2023-05-19T15:09:44.108Z,100962.19
2023-05-19T15:12:13.883Z,100964.03
2023-05-19T15:14:43.699Z,100955.75
2023-05-19T15:17:13.565Z,100945.66
2023-05-19T15:19:43.506Z,100945.44
2023-05-19T15:22:13.299Z,100952.44
2023-05-19T15:24:45.723Z,100946.09
2023-05-19T15:27:15.598Z,100945.22
2023-05-19T15:29:45.596Z,100943.59
2023-05-19T15:32:15.386Z,100955.34
2023-05-19T15:34:45.109Z,100946.50
2023-05-19T15:37:15.084Z,100943.94
2023-05-19T15:39:47.403Z,100955.41
2023-05-19T15:42:17.168Z,100942.97
2023-05-19T15:44:47.925Z,100940.50
2023-05-19T15:47:17.737Z,100942.66
2023-05-19T15:49:47.896Z,100939.34
2023-05-19T15:52:17.707Z,100934.31
2023-05-19T15:54:50.565Z,100940.63
2023-05-19T15:57:20.358Z,100938.69
2023-05-19T15:59:50.113Z,100945.03
2023-05-19T16:02:20.031Z,100936.34
2023-05-19T16:04:49.969Z,100934.69
2023-05-19T16:07:19.881Z,100940.06
2023-05-19T16:09:52.791Z,100932.97
2023-05-19T16:12:22.541Z,100917.19
2023-05-19T16:14:52.310Z,100914.72
2023-05-19T16:17:22.076Z,100916.53
2023-05-19T16:19:51.829Z,100920.09
2023-05-19T16:22:24.808Z,100918.38
2023-05-19T16:24:57.336Z,100920.41
2023-05-19T16:27:27.388Z,100923.97
2023-05-19T16:29:58.117Z,100919.69
2023-05-19T16:32:27.911Z,100910.13
2023-05-19T16:34:57.708Z,100912.03
2023-05-19T16:37:27.510Z,100910.34
2023-05-19T16:39:59.947Z,100912.16
2023-05-19T16:42:29.897Z,100908.63
2023-05-19T16:44:59.658Z,100911.53
2023-05-19T16:47:29.457Z,100908.06
2023-05-19T16:49:59.304Z,100918.81
2023-05-19T16:52:29.136Z,100909.03
2023-05-19T16:55:01.497Z,100901.31
2023-05-19T16:57:31.253Z,100905.28
2023-05-19T17:00:01.060Z,100905.47
2023-05-19T17:02:31.189Z,100899.47
2023-05-19T17:05:01.262Z,100894.34
2023-05-19T17:07:31.896Z,100900.75
2023-05-19T17:10:04.224Z,100906.97
2023-05-19T17:12:34.000Z,100912.34
2023-05-19T17:15:03.808Z,100899.16
2023-05-19T17:17:33.578Z,100901.16
2023-05-19T17:20:03.507Z,100902.13
2023-05-19T17:22:33.260Z,100914.78
2023-05-19T17:25:05.616Z,100904.28
2023-05-19T17:27:35.380Z,100907.16
2023-05-19T17:30:05.341Z,100901.06
2023-05-19T17:32:38.640Z,100894.91
2023-05-19T17:35:10.066Z,100897.81
2023-05-19T17:37:39.880Z,100899.00
2023-05-19T17:40:14.179Z,100902.00
2023-05-19T17:42:43.975Z,100902.28
2023-05-19T17:45:14.771Z,100895.41
2023-05-19T17:47:44.609Z,100920.56
2023-05-19T17:50:14.395Z,100918.88
2023-05-19T17:52:44.850Z,100914.56
2023-05-19T17:55:18.198Z,100926.34
2023-05-19T17:57:49.318Z,100923.78
2023-05-19T18:00:20.129Z,100926.72
2023-05-19T18:02:51.168Z,100928.66
2023-05-19T18:05:22.127Z,100928.00
2023-05-19T18:07:52.690Z,100921.13
2023-05-19T18:10:25.493Z,100931.28
2023-05-19T18:12:55.223Z,100929.84
2023-05-19T18:15:25.045Z,100934.56
2023-05-19T18:17:54.851Z,100922.44
2023-05-19T18:20:24.649Z,100924.44
2023-05-19T18:22:54.402Z,100932.69
2023-05-19T18:25:27.053Z,100932.97
2023-05-19T18:27:57.321Z,100932.31
2023-05-19T18:30:27.185Z,100929.91
2023-05-19T18:32:56.971Z,100939.22
2023-05-19T18:35:26.852Z,100934.25
2023-05-19T18:37:58.117Z,100937.31
2023-05-19T18:40:30.612Z,100937.50
2023-05-19T18:43:00.357Z,100944.16
2023-05-19T18:45:30.128Z,100941.06
2023-05-19T18:47:59.929Z,100941.31
2023-05-19T18:50:29.750Z,100943.38
2023-05-19T18:52:59.512Z,100950.91
2023-05-19T18:55:31.961Z,100947.78
2023-05-19T18:58:01.916Z,100943.63
2023-05-19T19:00:31.960Z,100953.69
2023-05-19T19:03:01.936Z,100957.59
2023-05-19T19:05:32.056Z,100964.19
2023-05-19T19:08:02.662Z,100960.03
2023-05-19T19:10:39.189Z,100970.22
2023-05-19T19:13:09.039Z,100972.13
2023-05-19T19:15:39.968Z,100968.78
2023-05-19T19:18:09.791Z,100970.00
2023-05-19T19:20:39.624Z,100969.50
2023-05-19T19:23:09.445Z,100964.63
2023-05-19T19:25:41.923Z,100973.06
2023-05-19T19:28:11.917Z,100972.56
2023-05-19T19:30:41.669Z,100981.88
2023-05-19T19:33:11.589Z,100978.50
2023-05-19T19:35:41.402Z,100983.09
2023-05-19T19:38:11.308Z,100984.22
2023-05-19T19:40:43.683Z,100978.25
2023-05-19T19:43:13.484Z,100989.88
2023-05-19T19:45:43.271Z,100990.22
2023-05-19T19:48:13.149Z,100992.38
2023-05-19T19:50:43.006Z,101000.63
2023-05-19T19:53:12.794Z,101000.88
2023-05-19T19:55:45.193Z,100995.78
2023-05-19T19:58:14.984Z,101003.19
2023-05-19T20:00:44.732Z,101000.84
2023-05-19T20:03:14.621Z,100994.97
2023-05-19T20:05:44.803Z,101007.66
2023-05-19T20:08:16.059Z,101000.75
2023-05-19T20:10:49.151Z,101000.03
2023-05-19T20:13:19.188Z,101004.69
2023-05-19T20:15:49.603Z,101000.31
2023-05-19T20:18:19.391Z,101005.69
2023-05-19T20:20:49.234Z,101004.13
2023-05-19T20:23:18.968Z,101011.47
2023-05-19T20:26:09.994Z,101010.84
2023-05-19T20:28:40.652Z,101017.34
2023-05-19T20:31:10.642Z,101020.28
2023-05-19T20:33:40.522Z,101024.09
2023-05-19T20:36:11.145Z,101015.50
2023-05-19T20:38:40.951Z,101021.84
2023-05-19T20:41:13.506Z,101017.69
2023-05-19T20:43:43.324Z,101024.22
2023-05-19T20:46:13.951Z,101020.06
2023-05-19T20:48:43.759Z,101018.44
2023-05-19T20:51:13.553Z,101021.41
2023-05-19T20:53:43.457Z,101020.78
2023-05-19T20:56:15.885Z,101021.06
2023-05-19T20:58:45.721Z,101023.81
2023-05-19T21:01:15.590Z,101024.78
2023-05-19T21:03:45.416Z,101020.53
2023-05-19T21:06:15.255Z,101023.41
2023-05-19T21:08:45.006Z,101030.84
2023-05-19T21:11:17.421Z,101030.28
2023-05-19T21:13:47.153Z,101028.84
2023-05-19T21:16:16.944Z,101033.47
2023-05-19T21:18:46.799Z,101034.41
2023-05-19T21:21:16.577Z,101038.09
2023-05-19T21:23:46.345Z,101031.97
2023-05-19T21:26:18.703Z,101036.34
2023-05-19T21:28:48.433Z,101034.69
2023-05-19T21:31:18.382Z,101030.38
2023-05-19T21:33:48.156Z,101036.72
2023-05-19T21:36:18.451Z,101036.00
2023-05-19T21:38:48.184Z,101030.69
2023-05-19T21:41:21.374Z,101043.13
2023-05-19T21:43:51.235Z,101033.44
2023-05-19T21:46:21.109Z,101031.63
2023-05-19T21:48:50.881Z,101036.09
2023-05-19T21:51:20.660Z,101056.50
2023-05-19T21:53:50.407Z,101037.09
2023-05-19T21:56:22.897Z,101039.25
2023-05-19T21:58:52.673Z,101032.34
2023-05-19T22:01:22.443Z,101034.34
2023-05-19T22:03:52.350Z,101026.59
2023-05-19T22:06:22.176Z,101022.28
2023-05-19T22:08:51.990Z,101035.66
2023-05-19T22:11:24.330Z,101038.50
2023-05-19T22:13:54.863Z,101035.06
2023-05-19T22:16:24.795Z,101039.66
2023-05-19T22:18:54.614Z,101038.81
2023-05-19T22:21:24.421Z,101042.47
2023-05-19T22:23:54.991Z,101048.72
2023-05-19T22:26:27.355Z,101044.47
2023-05-19T22:28:57.873Z,101048.09
2023-05-19T22:31:27.620Z,101043.63
2023-05-19T22:33:57.471Z,101046.28
2023-05-19T22:36:27.238Z,101044.66
2023-05-19T22:38:57.134Z,101039.44
2023-05-19T22:41:29.561Z,101033.41
2023-05-19T22:43:59.335Z,101038.00
2023-05-19T22:46:29.192Z,101039.88
2023-05-19T22:48:59.082Z,101043.47
2023-05-19T22:51:28.961Z,101038.16
2023-05-19T22:53:58.736Z,101042.53
2023-05-19T22:56:31.068Z,101036.28
2023-05-19T22:59:00.864Z,101041.75
2023-05-19T23:01:30.762Z,101040.16
2023-05-19T23:04:00.620Z,101041.13
2023-05-19T23:06:30.391Z,101035.09
2023-05-19T23:09:04.934Z,101040.75
2023-05-19T23:11:37.424Z,101036.69
2023-05-19T23:14:07.264Z,101045.09
2023-05-19T23:16:37.017Z,101041.91
2023-05-19T23:19:06.892Z,101039.56
2023-05-19T23:21:36.688Z,101030.13
2023-05-19T23:24:06.749Z,101041.84
2023-05-19T23:26:39.111Z,101033.28
2023-05-19T23:29:08.867Z,101034.38
2023-05-19T23:31:38.647Z,101032.00
2023-05-19T23:34:08.588Z,101029.56
2023-05-19T23:36:38.376Z,101033.34
2023-05-19T23:39:08.147Z,101030.00
2023-05-19T23:41:40.763Z,101033.78
2023-05-19T23:44:11.516Z,101030.47
2023-05-19T23:46:41.458Z,101020.22
2023-05-19T23:49:11.225Z,101019.63
2023-05-19T23:51:41.081Z,101022.50
2023-05-19T23:54:11.166Z,101019.16
2023-05-19T23:56:43.616Z,101014.94
2023-05-19T23:59:13.392Z,101009.91
